createdAt,value
2023-03-05T00:00:21.930Z,102381.19
2023-03-05T00:02:48.442Z,102370.72
2023-03-05T00:05:14.899Z,102368.31
2023-03-05T00:07:41.361Z,102362.44
2023-03-05T00:10:08.340Z,102362.97
2023-03-05T00:12:34.964Z,102363.22
2023-03-05T00:15:01.404Z,102362.16
2023-03-05T00:17:27.838Z,102353.88
2023-03-05T00:19:54.330Z,102359.22
2023-03-05T00:22:20.858Z,102348.50
2023-03-05T00:24:51.385Z,102350.34
2023-03-05T00:27:18.226Z,102344.75
2023-03-05T00:29:44.678Z,102345.81
2023-03-05T00:32:11.280Z,102347.16
2023-03-05T00:34:37.814Z,102344.22
2023-03-05T00:37:04.331Z,102337.25
2023-03-05T00:39:30.794Z,102336.44
2023-03-05T00:41:57.299Z,102349.56
2023-03-05T00:44:24.410Z,102338.06
2023-03-05T00:46:50.939Z,102344.22
2023-03-05T00:49:17.467Z,102337.78
2023-03-05T00:51:44.385Z,102338.06
2023-03-05T00:54:10.878Z,102330.56
2023-03-05T00:56:37.407Z,102332.72
2023-03-05T00:59:03.932Z,102323.06
2023-03-05T01:01:30.555Z,102323.31
2023-03-05T01:03:57.480Z,102326.56
2023-03-05T01:06:23.877Z,102321.72
2023-03-05T01:08:50.356Z,102318.53
2023-03-05T01:11:17.118Z,102319.06
2023-03-05T01:13:43.711Z,102312.63
2023-03-05T01:16:10.261Z,102310.22
2023-03-05T01:18:38.344Z,102309.41
2023-03-05T01:21:05.616Z,102311.53
2023-03-05T01:23:34.276Z,102308.06
2023-03-05T01:26:00.720Z,102297.63
2023-03-05T01:28:28.406Z,102295.22
2023-03-05T01:30:54.991Z,102285.84
2023-03-05T01:33:21.464Z,102292.00
2023-03-05T01:35:48.886Z,102287.44
2023-03-05T01:38:16.301Z,102289.34
2023-03-05T01:40:43.859Z,102280.50
2023-03-05T01:43:13.015Z,102278.88
2023-03-05T01:46:17.699Z,102269.78
2023-03-05T01:48:51.007Z,102268.44
2023-03-05T01:51:19.732Z,102260.41
2023-03-05T01:53:47.423Z,102255.59
2023-03-05T01:56:14.324Z,102254.25
2023-03-05T01:58:41.540Z,102249.44
2023-03-05T02:01:08.095Z,102248.13
2023-03-05T02:03:35.626Z,102243.56
2023-03-05T02:06:02.041Z,102243.81
2023-03-05T02:08:28.484Z,102236.31
2023-03-05T02:11:00.308Z,102233.13
2023-03-05T02:13:32.747Z,102230.44
2023-03-05T02:16:00.782Z,102226.13
2023-03-05T02:18:27.948Z,102218.38
2023-03-05T02:20:57.416Z,102215.44
2023-03-05T02:23:30.220Z,102211.19
2023-03-05T02:25:57.380Z,102208.22
2023-03-05T02:28:55.471Z,102204.72
2023-03-05T02:31:23.723Z,102200.47
2023-03-05T02:33:51.251Z,102199.38
2023-03-05T02:36:18.736Z,102195.13
2023-03-05T02:38:46.404Z,102197.78
2023-03-05T02:41:13.935Z,102194.59
2023-03-05T02:43:40.724Z,102185.75
2023-03-05T02:46:07.657Z,102191.09
2023-03-05T02:48:34.406Z,102189.50
2023-03-05T02:51:03.754Z,102180.13
2023-03-05T02:53:30.173Z,102175.03
2023-03-05T02:55:56.653Z,102173.97
2023-03-05T02:58:23.277Z,102170.50
2023-03-05T03:00:49.762Z,102168.63
2023-03-05T03:03:16.435Z,102162.22
2023-03-05T03:05:43.080Z,102164.06
2023-03-05T03:08:10.443Z,102161.66
2023-03-05T03:10:36.966Z,102152.28
2023-03-05T03:13:04.045Z,102151.19
2023-03-05T03:15:30.847Z,102137.28
2023-03-05T03:17:57.311Z,102142.09
2023-03-05T03:20:24.544Z,102133.81
2023-03-05T03:22:51.059Z,102133.28
2023-03-05T03:25:20.949Z,102128.47
2023-03-05T03:27:47.585Z,102127.69
2023-03-05T03:30:14.684Z,102125.28
2023-03-05T03:32:41.509Z,102128.75
2023-03-05T03:35:08.751Z,102129.81
2023-03-05T03:37:35.405Z,102124.75
2023-03-05T03:40:02.304Z,102125.00
2023-03-05T03:42:28.748Z,102123.41
2023-03-05T03:44:55.213Z,102116.47
2023-03-05T03:47:21.560Z,102109.50
2023-03-05T03:49:48.320Z,102107.63
2023-03-05T03:52:15.001Z,102099.59
2023-03-05T03:54:42.492Z,102092.66
2023-03-05T03:57:09.365Z,102093.19
2023-03-05T03:59:35.809Z,102093.19
2023-03-05T04:02:02.175Z,102099.84
2023-03-05T04:04:30.235Z,102103.34
2023-03-05T04:06:57.009Z,102094.22
2023-03-05T04:09:23.400Z,102093.72
2023-03-05T04:11:49.828Z,102098.78
2023-03-05T04:14:16.249Z,102088.09
2023-03-05T04:16:42.804Z,102088.63
2023-03-05T04:19:09.555Z,102084.63
2023-03-05T04:21:36.267Z,102083.53
2023-03-05T04:24:03.116Z,102089.94
2023-03-05T04:26:29.572Z,102084.59
2023-03-05T04:28:56.187Z,102081.09
2023-03-05T04:31:24.098Z,102078.97
2023-03-05T04:33:50.712Z,102070.66
2023-03-05T04:36:17.198Z,102068.25
2023-03-05T04:38:43.649Z,102070.41
2023-03-05T04:41:10.180Z,102067.72
2023-03-05T04:43:36.627Z,102067.47
2023-03-05T04:46:03.381Z,102065.88
2023-03-05T04:48:29.885Z,102053.56
2023-03-05T04:50:58.076Z,102053.84
2023-03-05T04:53:25.953Z,102046.09
2023-03-05T04:55:56.698Z,102049.28
2023-03-05T04:58:24.306Z,102044.50
2023-03-05T05:00:51.252Z,102038.06
2023-03-05T05:03:17.684Z,102043.44
2023-03-05T05:05:44.230Z,102049.03
2023-03-05T05:08:11.148Z,102050.13
2023-03-05T05:10:39.958Z,102045.59
2023-03-05T05:13:06.741Z,102042.13
2023-03-05T05:15:33.430Z,102037.03
2023-03-05T05:17:59.867Z,102033.56
2023-03-05T05:20:26.315Z,102031.97
2023-03-05T05:22:52.765Z,102021.25
2023-03-05T05:25:19.392Z,102029.28
2023-03-05T05:27:45.842Z,102030.34
2023-03-05T05:30:12.833Z,102019.38
2023-03-05T05:32:39.351Z,102021.00
2023-03-05T05:35:06.756Z,102021.78
2023-03-05T05:37:33.121Z,102017.78
2023-03-05T05:39:59.580Z,102021.53
2023-03-05T05:42:26.232Z,102016.44
2023-03-05T05:44:53.404Z,102014.59
2023-03-05T05:47:19.929Z,102009.78
2023-03-05T05:49:46.519Z,102014.34
2023-03-05T05:52:14.244Z,102008.16
2023-03-05T05:54:40.767Z,102012.97
2023-03-05T05:57:08.237Z,102004.69
2023-03-05T05:59:35.152Z,102005.22
2023-03-05T06:02:01.635Z,102004.16
2023-03-05T06:04:28.034Z,102005.75
2023-03-05T06:06:54.532Z,102008.16
2023-03-05T06:09:21.151Z,102009.78
2023-03-05T06:11:47.921Z,102004.69
2023-03-05T06:14:14.437Z,101999.59
2023-03-05T06:16:41.441Z,101994.25
2023-03-05T06:19:11.525Z,102000.66
2023-03-05T06:21:38.692Z,101998.00
2023-03-05T06:24:05.718Z,102000.97
2023-03-05T06:26:32.976Z,101999.88
2023-03-05T06:28:59.563Z,101998.00
2023-03-05T06:31:28.270Z,101998.00
2023-03-05T06:33:57.679Z,101997.19
2023-03-05T06:36:25.783Z,101993.19
2023-03-05T06:38:53.534Z,101997.44
2023-03-05T06:41:29.625Z,101998.81
2023-03-05T06:43:57.183Z,101996.38
2023-03-05T06:46:29.499Z,101999.31
2023-03-05T06:48:57.630Z,101997.69
2023-03-05T06:51:36.521Z,101995.25
2023-03-05T06:54:06.537Z,102003.03
2023-03-05T06:56:35.638Z,101993.41
2023-03-05T06:59:02.105Z,102000.34
2023-03-05T07:01:28.590Z,101985.63
2023-03-05T07:03:55.651Z,101991.22
2023-03-05T07:06:22.918Z,101993.06
2023-03-05T07:08:50.093Z,101985.00
2023-03-05T07:11:19.588Z,101987.91
2023-03-05T07:13:47.942Z,101992.69
2023-03-05T07:16:17.585Z,101988.31
2023-03-05T07:18:45.225Z,101985.56
2023-03-05T07:21:16.011Z,101985.06
2023-03-05T07:23:42.478Z,101992.28
2023-03-05T07:26:09.025Z,101988.53
2023-03-05T07:28:35.627Z,101987.94
2023-03-05T07:31:06.632Z,101984.38
2023-03-05T07:33:34.923Z,101984.63
2023-03-05T07:36:01.778Z,101980.13
2023-03-05T07:38:28.209Z,101991.72
2023-03-05T07:40:54.656Z,101983.72
2023-03-05T07:43:21.029Z,101984.81
2023-03-05T07:45:47.527Z,101982.13
2023-03-05T07:48:17.094Z,101975.13
2023-03-05T07:50:44.021Z,101979.44
2023-03-05T07:53:10.800Z,101987.44
2023-03-05T07:55:43.006Z,101976.38
2023-03-05T07:58:10.019Z,101976.78
2023-03-05T08:00:37.072Z,101982.06
2023-03-05T08:03:03.756Z,101972.59
2023-03-05T08:05:30.336Z,101974.41
2023-03-05T08:07:56.849Z,101969.97
2023-03-05T08:10:23.356Z,101969.31
2023-03-05T08:12:49.886Z,101964.47
2023-03-05T08:15:16.808Z,101964.50
2023-03-05T08:17:43.492Z,101965.38
2023-03-05T08:20:11.237Z,101966.72
2023-03-05T08:22:38.495Z,101958.97
2023-03-05T08:25:06.466Z,101957.91
2023-03-05T08:27:33.169Z,101958.63
2023-03-05T08:30:01.954Z,101953.91
2023-03-05T08:32:28.661Z,101957.84
2023-03-05T08:34:58.634Z,101946.78
2023-03-05T08:37:25.718Z,101945.00
2023-03-05T08:39:52.582Z,101949.41
2023-03-05T08:42:19.165Z,101945.78
2023-03-05T08:44:45.744Z,101947.75
2023-03-05T08:47:12.392Z,101946.28
2023-03-05T08:49:38.891Z,101933.19
2023-03-05T08:52:05.503Z,101928.78
2023-03-05T08:54:32.048Z,101939.25
2023-03-05T08:56:58.412Z,101929.28
2023-03-05T08:59:25.079Z,101920.84
2023-03-05T09:01:51.637Z,101914.31
2023-03-05T09:04:19.061Z,101919.03
2023-03-05T09:06:45.957Z,101912.66
2023-03-05T09:09:13.853Z,101918.25
2023-03-05T09:11:40.292Z,101921.63
2023-03-05T09:14:07.339Z,101913.25
2023-03-05T09:16:33.864Z,101911.44
2023-03-05T09:19:00.583Z,101917.44
2023-03-05T09:21:27.108Z,101917.75
2023-03-05T09:23:59.506Z,101907.19
2023-03-05T09:26:26.875Z,101917.66
2023-03-05T09:28:53.497Z,101915.06
2023-03-05T09:31:20.157Z,101913.53
2023-03-05T09:33:48.918Z,101913.13
2023-03-05T09:36:25.244Z,101918.22
2023-03-05T09:38:52.051Z,101907.94
2023-03-05T09:41:38.831Z,101905.47
2023-03-05T09:44:09.168Z,101899.72
2023-03-05T09:47:03.158Z,101901.09
2023-03-05T09:49:51.065Z,101905.69
2023-03-05T09:52:36.054Z,101906.81
2023-03-05T09:55:04.567Z,101905.19
2023-03-05T09:57:43.352Z,101903.59
2023-03-05T10:00:32.748Z,101899.53
2023-03-05T10:03:04.158Z,101883.97
2023-03-05T10:06:01.682Z,101899.25
2023-03-05T10:08:37.723Z,101891.94
2023-03-05T10:11:15.287Z,101881.88
2023-03-05T10:13:44.444Z,101885.16
2023-03-05T10:16:35.764Z,101875.47
2023-03-05T10:19:41.271Z,101878.72
2023-03-05T10:22:31.674Z,101876.50
2023-03-05T10:25:07.372Z,101871.75
2023-03-05T10:27:51.177Z,101867.53
2023-03-05T10:30:43.521Z,101863.09
2023-03-05T10:33:57.930Z,101860.53
2023-03-05T10:36:36.927Z,101858.94
2023-03-05T10:39:18.760Z,101849.81
2023-03-05T10:42:06.067Z,101851.91
2023-03-05T10:44:34.893Z,101852.84
2023-03-05T10:47:02.762Z,101848.56
2023-03-05T10:49:37.050Z,101841.28
2023-03-05T10:52:18.374Z,101839.38
2023-03-05T10:54:45.072Z,101839.00
2023-03-05T10:57:27.686Z,101834.47
2023-03-05T11:00:20.461Z,101824.53
2023-03-05T11:03:01.115Z,101829.25
2023-03-05T11:05:44.635Z,101819.13
2023-03-05T11:08:35.311Z,101824.69
2023-03-05T11:11:15.075Z,101815.34
2023-03-05T11:14:05.500Z,101812.16
2023-03-05T11:16:47.047Z,101810.25
2023-03-05T11:19:19.876Z,101806.44
2023-03-05T11:22:05.855Z,101803.91
2023-03-05T11:24:34.023Z,101797.06
2023-03-05T11:27:00.648Z,101794.69
2023-03-05T11:29:32.897Z,101783.91
2023-03-05T11:32:23.840Z,101783.44
2023-03-05T11:34:50.325Z,101773.06
2023-03-05T11:37:34.645Z,101770.66
2023-03-05T11:40:10.199Z,101766.84
2023-03-05T11:42:40.123Z,101759.03
2023-03-05T11:45:11.398Z,101764.78
2023-03-05T11:47:48.830Z,101752.16
2023-03-05T11:50:25.927Z,101756.13
2023-03-05T11:52:58.044Z,101748.28
2023-03-05T11:55:43.304Z,101744.94
2023-03-05T11:58:26.492Z,101746.47
2023-03-05T12:00:53.494Z,101738.25
2023-03-05T12:03:31.307Z,101733.00
2023-03-05T12:06:03.438Z,101736.63
2023-03-05T12:08:34.381Z,101727.84
2023-03-05T12:11:07.152Z,101723.59
2023-03-05T12:13:43.158Z,101714.25
2023-03-05T12:16:25.751Z,101711.03
2023-03-05T12:19:04.458Z,101702.97
2023-03-05T12:21:36.925Z,101717.28
2023-03-05T12:24:25.483Z,101699.72
2023-03-05T12:26:54.432Z,101697.72
2023-03-05T12:29:49.206Z,101696.19
2023-03-05T12:32:25.581Z,101690.63
2023-03-05T12:35:25.656Z,101678.50
2023-03-05T12:37:52.066Z,101678.97
2023-03-05T12:40:23.113Z,101668.66
2023-03-05T12:42:52.681Z,101672.91
2023-03-05T12:45:19.714Z,101667.50
2023-03-05T12:47:48.701Z,101659.09
2023-03-05T12:50:27.222Z,101654.97
2023-03-05T12:53:10.447Z,101660.06
2023-03-05T12:55:48.973Z,101652.75
2023-03-05T12:58:44.905Z,101652.75
2023-03-05T13:01:11.409Z,101634.00
2023-03-05T13:03:48.219Z,101632.25
2023-03-05T13:06:34.452Z,101632.72
2023-03-05T13:09:16.257Z,101625.72
2023-03-05T13:11:46.986Z,101622.66
2023-03-05T13:14:42.652Z,101620.63
2023-03-05T13:17:31.288Z,101616.22
2023-03-05T13:20:01.502Z,101606.16
2023-03-05T13:22:28.489Z,101603.19
2023-03-05T13:25:16.807Z,101605.00
2023-03-05T13:27:43.904Z,101603.88
2023-03-05T13:30:28.302Z,101603.28
2023-03-05T13:33:00.835Z,101596.56
2023-03-05T13:35:27.503Z,101581.94
2023-03-05T13:37:54.091Z,101582.06
2023-03-05T13:40:20.638Z,101574.09
2023-03-05T13:42:47.248Z,101581.97
2023-03-05T13:45:32.131Z,101568.00
2023-03-05T13:48:01.208Z,101571.81
2023-03-05T13:50:32.303Z,101570.56
2023-03-05T13:53:20.661Z,101565.84
2023-03-05T13:55:48.989Z,101565.09
2023-03-05T13:58:53.516Z,101554.00
2023-03-05T14:01:40.718Z,101563.06
2023-03-05T14:04:29.137Z,101559.09
2023-03-05T14:06:58.428Z,101557.69
2023-03-05T14:09:31.239Z,101556.78
2023-03-05T14:12:21.333Z,101548.38
2023-03-05T14:14:48.982Z,101545.69
2023-03-05T14:17:27.654Z,101540.00
2023-03-05T14:20:35.505Z,101539.69
2023-03-05T14:23:26.782Z,101537.91
2023-03-05T14:26:11.140Z,101521.69
2023-03-05T14:28:38.347Z,101527.25
2023-03-05T14:31:15.731Z,101524.06
2023-03-05T14:33:42.452Z,101521.66
2023-03-05T14:36:10.236Z,101512.22
2023-03-05T14:38:41.126Z,101511.56
2023-03-05T14:41:41.491Z,101499.13
2023-03-05T14:44:18.892Z,101507.47
2023-03-05T14:46:49.790Z,101504.97
2023-03-05T14:49:17.101Z,101505.19
2023-03-05T14:51:46.197Z,101497.44
2023-03-05T14:54:20.186Z,101489.69
2023-03-05T14:56:46.950Z,101484.50
2023-03-05T14:59:13.392Z,101489.25
2023-03-05T15:01:39.810Z,101479.25
2023-03-05T15:04:06.238Z,101477.53
2023-03-05T15:06:36.836Z,101475.16
2023-03-05T15:09:05.897Z,101470.88
2023-03-05T15:11:32.368Z,101477.22
2023-03-05T15:13:58.803Z,101469.44
2023-03-05T15:16:25.293Z,101472.16
2023-03-05T15:18:51.692Z,101452.47
2023-03-05T15:21:18.193Z,101455.16
2023-03-05T15:23:45.288Z,101449.16
2023-03-05T15:26:14.743Z,101450.25
2023-03-05T15:28:43.512Z,101444.25
2023-03-05T15:31:10.402Z,101445.03
2023-03-05T15:33:36.918Z,101445.03
2023-03-05T15:36:03.948Z,101436.78
2023-03-05T15:38:30.373Z,101442.00
2023-03-05T15:40:56.797Z,101431.88
2023-03-05T15:43:23.513Z,101433.59
2023-03-05T15:45:50.218Z,101428.84
2023-03-05T15:48:16.850Z,101426.97
2023-03-05T15:50:44.106Z,101428.84
2023-03-05T15:53:13.264Z,101420.75
2023-03-05T15:55:40.686Z,101418.53
2023-03-05T15:58:08.060Z,101414.72
2023-03-05T16:00:37.093Z,101417.09
2023-03-05T16:03:04.157Z,101408.34
2023-03-05T16:05:30.677Z,101407.25
2023-03-05T16:07:58.904Z,101401.38
2023-03-05T16:10:28.794Z,101407.38
2023-03-05T16:13:00.596Z,101401.97
2023-03-05T16:15:27.505Z,101404.97
2023-03-05T16:17:56.168Z,101398.78
2023-03-05T16:20:23.250Z,101393.06
2023-03-05T16:22:49.794Z,101392.91
2023-03-05T16:25:16.800Z,101393.22
2023-03-05T16:27:43.302Z,101388.44
2023-03-05T16:30:10.909Z,101384.00
2023-03-05T16:32:38.404Z,101379.56
2023-03-05T16:35:05.601Z,101379.88
2023-03-05T16:37:32.203Z,101370.50
2023-03-05T16:39:59.411Z,101370.34
2023-03-05T16:42:26.083Z,101371.09
2023-03-05T16:44:52.562Z,101372.94
2023-03-05T16:47:19.145Z,101370.22
2023-03-05T16:49:45.747Z,101361.97
2023-03-05T16:52:18.813Z,101362.28
2023-03-05T16:54:46.327Z,101366.38
2023-03-05T16:57:13.022Z,101357.94
2023-03-05T16:59:39.635Z,101359.97
2023-03-05T17:02:06.266Z,101349.22
2023-03-05T17:04:32.951Z,101359.00
2023-03-05T17:06:59.912Z,101357.81
2023-03-05T17:09:26.458Z,101352.56
2023-03-05T17:11:54.347Z,101352.88
2023-03-05T17:14:20.915Z,101351.13
2023-03-05T17:16:47.683Z,101352.69
2023-03-05T17:19:14.482Z,101355.06
2023-03-05T17:21:42.466Z,101348.13
2023-03-05T17:24:10.012Z,101341.16
2023-03-05T17:26:37.314Z,101347.63
2023-03-05T17:29:05.401Z,101349.81
2023-03-05T17:31:32.171Z,101346.19
2023-03-05T17:33:58.754Z,101341.09
2023-03-05T17:36:25.673Z,101340.94
2023-03-05T17:38:53.077Z,101334.25
2023-03-05T17:41:19.944Z,101337.06
2023-03-05T17:43:46.687Z,101340.38
2023-03-05T17:46:13.936Z,101332.16
2023-03-05T17:48:41.710Z,101330.38
2023-03-05T17:51:11.538Z,101334.94
2023-03-05T17:53:40.372Z,101335.06
2023-03-05T17:56:09.240Z,101331.38
2023-03-05T17:58:36.361Z,101335.00
2023-03-05T18:01:03.948Z,101336.19
2023-03-05T18:03:30.478Z,101335.22
2023-03-05T18:05:57.072Z,101335.03
2023-03-05T18:08:23.521Z,101328.66
2023-03-05T18:10:50.224Z,101336.22
2023-03-05T18:13:16.646Z,101331.47
2023-03-05T18:15:47.799Z,101333.66
2023-03-05T18:18:15.442Z,101331.75
2023-03-05T18:20:42.071Z,101326.50
2023-03-05T18:23:08.862Z,101324.13
2023-03-05T18:25:35.412Z,101318.75
2023-03-05T18:28:08.379Z,101324.63
2023-03-05T18:30:35.345Z,101321.31
2023-03-05T18:33:02.162Z,101324.81
2023-03-05T18:35:29.256Z,101317.56
2023-03-05T18:37:56.317Z,101314.09
2023-03-05T18:40:25.880Z,101320.34
2023-03-05T18:42:52.557Z,101315.59
2023-03-05T18:45:20.824Z,101318.56
2023-03-05T18:47:47.965Z,101316.22
2023-03-05T18:50:16.924Z,101309.84
2023-03-05T18:52:43.787Z,101303.19
2023-03-05T18:55:29.392Z,101301.13
2023-03-05T18:57:56.581Z,101296.63
2023-03-05T19:00:29.025Z,101298.53
2023-03-05T19:02:56.878Z,101291.56
2023-03-05T19:05:26.164Z,101282.84
2023-03-05T19:07:54.108Z,101286.13
2023-03-05T19:10:22.941Z,101290.72
2023-03-05T19:12:55.426Z,101285.63
2023-03-05T19:15:22.550Z,101274.44
2023-03-05T19:17:49.573Z,101280.88
2023-03-05T19:20:17.257Z,101278.00
2023-03-05T19:22:43.730Z,101268.69
2023-03-05T19:25:11.212Z,101273.03
2023-03-05T19:27:38.264Z,101276.63
2023-03-05T19:30:05.686Z,101267.00
2023-03-05T19:32:32.428Z,101259.53
2023-03-05T19:35:00.153Z,101250.22
2023-03-05T19:37:26.683Z,101256.06
2023-03-05T19:39:53.212Z,101253.88
2023-03-05T19:42:20.262Z,101251.69
2023-03-05T19:44:46.824Z,101241.50
2023-03-05T19:47:13.276Z,101246.53
2023-03-05T19:49:39.712Z,101245.44
2023-03-05T19:52:06.996Z,101239.91
2023-03-05T19:54:33.789Z,101234.81
2023-03-05T19:57:00.334Z,101236.25
2023-03-05T19:59:27.052Z,101236.81
2023-03-05T20:01:53.764Z,101233.66
2023-03-05T20:04:22.282Z,101229.38
2023-03-05T20:06:49.131Z,101226.50
2023-03-05T20:09:16.226Z,101226.31
2023-03-05T20:11:43.000Z,101228.50
2023-03-05T20:14:09.793Z,101218.69
2023-03-05T20:16:37.798Z,101224.31
2023-03-05T20:19:07.279Z,101220.38
2023-03-05T20:21:40.757Z,101215.31
2023-03-05T20:24:10.485Z,101216.19
2023-03-05T20:26:39.437Z,101216.78
2023-03-05T20:29:06.504Z,101218.19
2023-03-05T20:31:36.925Z,101220.69
2023-03-05T20:34:16.127Z,101209.75
2023-03-05T20:36:43.161Z,101209.88
2023-03-05T20:39:10.127Z,101218.19
2023-03-05T20:41:38.443Z,101208.06
2023-03-05T20:44:06.036Z,101204.91
2023-03-05T20:46:35.739Z,101204.91
2023-03-05T20:49:03.995Z,101197.66
2023-03-05T20:51:36.326Z,101197.84
2023-03-05T20:54:06.751Z,101192.19
2023-03-05T20:56:35.111Z,101191.59
2023-03-05T20:59:04.722Z,101185.94
2023-03-05T21:01:33.044Z,101192.88
2023-03-05T21:03:59.958Z,101183.56
2023-03-05T21:06:27.928Z,101188.63
2023-03-05T21:08:54.655Z,101177.53
2023-03-05T21:11:21.387Z,101175.16
2023-03-05T21:13:48.020Z,101170.09
2023-03-05T21:16:27.625Z,101171.75
2023-03-05T21:18:57.155Z,101162.44
2023-03-05T21:21:24.618Z,101161.94
2023-03-05T21:23:52.166Z,101161.75
2023-03-05T21:26:18.851Z,101151.81
2023-03-05T21:28:45.274Z,101154.81
2023-03-05T21:31:17.511Z,101168.47
2023-03-05T21:33:44.144Z,101155.09
2023-03-05T21:36:10.827Z,101147.66
2023-03-05T21:38:37.369Z,101153.31
2023-03-05T21:41:05.216Z,101141.31
2023-03-05T21:43:32.282Z,101143.50
2023-03-05T21:46:00.848Z,101148.66
2023-03-05T21:48:27.500Z,101144.66
2023-03-05T21:50:55.375Z,101145.78
2023-03-05T21:53:22.180Z,101134.06
2023-03-05T21:56:21.112Z,101141.31
2023-03-05T21:58:48.458Z,101132.19
2023-03-05T22:01:16.289Z,101137.25
2023-03-05T22:03:42.999Z,101125.94
2023-03-05T22:06:10.500Z,101127.03
2023-03-05T22:08:37.125Z,101117.91
2023-03-05T22:11:10.028Z,101123.25
2023-03-05T22:13:37.476Z,101116.94
2023-03-05T22:16:04.733Z,101116.94
2023-03-05T22:18:32.567Z,101113.84
2023-03-05T22:20:59.773Z,101109.38
2023-03-05T22:23:29.638Z,101104.13
2023-03-05T22:25:58.595Z,101096.69
2023-03-05T22:28:26.197Z,101095.41
2023-03-05T22:30:53.097Z,101092.53
2023-03-05T22:33:21.955Z,101085.69
2023-03-05T22:35:49.501Z,101084.69
2023-03-05T22:38:16.049Z,101080.72
2023-03-05T22:40:45.090Z,101070.31
2023-03-05T22:43:12.294Z,101069.53
2023-03-05T22:45:39.953Z,101072.28
2023-03-05T22:48:07.514Z,101065.38
2023-03-05T22:50:33.928Z,101064.06
2023-03-05T22:53:00.642Z,101062.50
2023-03-05T22:55:27.461Z,101055.84
2023-03-05T22:57:53.868Z,101049.50
2023-03-05T23:00:23.877Z,101056.22
2023-03-05T23:02:51.590Z,101055.72
2023-03-05T23:05:19.087Z,101050.16
2023-03-05T23:07:46.037Z,101054.53
2023-03-05T23:10:15.589Z,101052.16
2023-03-05T23:12:49.834Z,101051.84
2023-03-05T23:15:23.085Z,101048.38
2023-03-05T23:17:49.481Z,101046.81
2023-03-05T23:20:19.591Z,101042.53
2023-03-05T23:22:46.754Z,101036.69
2023-03-05T23:25:14.655Z,101036.78
2023-03-05T23:27:41.990Z,101029.34
2023-03-05T23:30:20.504Z,101028.63
2023-03-05T23:32:55.810Z,101022.31
2023-03-05T23:35:28.425Z,101023.97
2023-03-05T23:37:56.267Z,101020.78
2023-03-05T23:40:44.457Z,101017.22
2023-03-05T23:43:11.756Z,101006.69
2023-03-05T23:45:41.659Z,101009.66
2023-03-05T23:48:08.217Z,101013.38
2023-03-05T23:50:38.789Z,101009.16
2023-03-05T23:53:06.130Z,101004.66
2023-03-05T23:55:41.980Z,101013.53
2023-03-05T23:58:08.791Z,101011.75
